sensor_id;sensor_type;location;lat;lon;timestamp;P1;durP1;ratioP1;P2;durP2;ratioP2
37645;SDS011;23489;49.600;6.138;2022-09-16T00:01:28;3.53;;;2.85;;
37645;SDS011;23489;49.600;6.138;2022-09-16T00:03:54;4.03;;;2.70;;
37645;SDS011;23489;49.600;6.138;2022-09-16T00:06:25;5.25;;;2.63;;
37645;SDS011;23489;49.600;6.138;2022-09-16T00:08:57;3.95;;;2.40;;
37645;SDS011;23489;49.600;6.138;2022-09-16T00:11:27;5.70;;;2.20;;
37645;SDS011;23489;49.600;6.138;2022-09-16T00:13:55;4.60;;;2.28;;
37645;SDS011;23489;49.600;6.138;2022-09-16T00:16:24;5.47;;;2.37;;
37645;SDS011;23489;49.600;6.138;2022-09-16T00:18:52;6.05;;;2.35;;
37645;SDS011;23489;49.600;6.138;2022-09-16T00:21:19;5.60;;;2.17;;
37645;SDS011;23489;49.600;6.138;2022-09-16T00:23:45;5.38;;;2.20;;
37645;SDS011;23489;49.600;6.138;2022-09-16T00:26:11;4.10;;;2.20;;
37645;SDS011;23489;49.600;6.138;2022-09-16T00:28:38;3.70;;;2.38;;
37645;SDS011;23489;49.600;6.138;2022-09-16T00:31:04;5.05;;;2.47;;
37645;SDS011;23489;49.600;6.138;2022-09-16T00:33:30;4.50;;;2.30;;
37645;SDS011;23489;49.600;6.138;2022-09-16T00:38:34;4.70;;;2.17;;
37645;SDS011;23489;49.600;6.138;2022-09-16T00:41:01;9.27;;;2.40;;
37645;SDS011;23489;49.600;6.138;2022-09-16T00:43:26;3.92;;;2.10;;
37645;SDS011;23489;49.600;6.138;2022-09-16T00:45:56;6.45;;;2.28;;
37645;SDS011;23489;49.600;6.138;2022-09-16T00:48:26;4.07;;;2.10;;
37645;SDS011;23489;49.600;6.138;2022-09-16T00:50:55;5.50;;;2.33;;
37645;SDS011;23489;49.600;6.138;2022-09-16T00:53:27;5.80;;;2.13;;
37645;SDS011;23489;49.600;6.138;2022-09-16T00:55:56;4.80;;;2.35;;
37645;SDS011;23489;49.600;6.138;2022-09-16T00:58:35;3.75;;;2.10;;
37645;SDS011;23489;49.600;6.138;2022-09-16T01:01:10;6.75;;;2.60;;
37645;SDS011;23489;49.600;6.138;2022-09-16T01:03:47;7.28;;;2.45;;
37645;SDS011;23489;49.600;6.138;2022-09-16T01:06:16;5.32;;;2.58;;
37645;SDS011;23489;49.600;6.138;2022-09-16T01:08:43;5.50;;;2.70;;
37645;SDS011;23489;49.600;6.138;2022-09-16T01:11:10;5.13;;;2.85;;
37645;SDS011;23489;49.600;6.138;2022-09-16T01:13:36;5.97;;;2.70;;
37645;SDS011;23489;49.600;6.138;2022-09-16T01:27:06;6.30;;;3.13;;
37645;SDS011;23489;49.600;6.138;2022-09-16T01:35:19;2.50;;;2.30;;
37645;SDS011;23489;49.600;6.138;2022-09-16T01:41:07;5.47;;;2.47;;
37645;SDS011;23489;49.600;6.138;2022-09-16T18:34:10;3.80;;;1.45;;
37645;SDS011;23489;49.600;6.138;2022-09-16T18:36:37;3.53;;;1.50;;
37645;SDS011;23489;49.600;6.138;2022-09-16T18:39:03;2.17;;;0.90;;
37645;SDS011;23489;49.600;6.138;2022-09-16T18:41:34;1.80;;;1.30;;
37645;SDS011;23489;49.600;6.138;2022-09-16T18:44:02;4.70;;;2.35;;
37645;SDS011;23489;49.600;6.138;2022-09-16T18:46:32;1.83;;;1.30;;
37645;SDS011;23489;49.600;6.138;2022-09-16T18:48:59;2.78;;;1.23;;
37645;SDS011;23489;49.600;6.138;2022-09-16T18:58:51;1.77;;;1.52;;
37645;SDS011;23489;49.600;6.138;2022-09-16T19:03:46;2.10;;;1.60;;
37645;SDS011;23489;49.600;6.138;2022-09-16T19:06:11;3.17;;;2.10;;
37645;SDS011;23489;49.600;6.138;2022-09-16T19:08:37;2.53;;;1.70;;
37645;SDS011;23489;49.600;6.138;2022-09-16T19:11:03;2.10;;;1.52;;
37645;SDS011;23489;49.600;6.138;2022-09-16T19:13:32;1.98;;;1.35;;
37645;SDS011;23489;49.600;6.138;2022-09-16T19:15:58;3.10;;;1.38;;
37645;SDS011;23489;49.600;6.138;2022-09-16T19:42:45;3.13;;;1.80;;
37645;SDS011;23489;49.600;6.138;2022-09-16T19:45:11;1.85;;;1.33;;
37645;SDS011;23489;49.600;6.138;2022-09-16T19:47:37;4.63;;;1.40;;
37645;SDS011;23489;49.600;6.138;2022-09-16T19:50:03;2.20;;;1.27;;
37645;SDS011;23489;49.600;6.138;2022-09-16T19:52:31;2.83;;;1.20;;
37645;SDS011;23489;49.600;6.138;2022-09-16T19:54:57;2.22;;;1.50;;
37645;SDS011;23489;49.600;6.138;2022-09-16T19:57:22;2.53;;;1.50;;
37645;SDS011;23489;49.600;6.138;2022-09-16T19:59:48;1.70;;;1.30;;
37645;SDS011;23489;49.600;6.138;2022-09-16T20:02:13;2.08;;;1.30;;
37645;SDS011;23489;49.600;6.138;2022-09-16T20:04:39;3.88;;;1.50;;
37645;SDS011;23489;49.600;6.138;2022-09-16T20:07:05;1.85;;;1.42;;
37645;SDS011;23489;49.600;6.138;2022-09-16T20:09:36;2.15;;;1.50;;
37645;SDS011;23489;49.600;6.138;2022-09-16T20:12:02;2.10;;;1.60;;
37645;SDS011;23489;49.600;6.138;2022-09-16T20:14:28;1.85;;;1.42;;
37645;SDS011;23489;49.600;6.138;2022-09-16T20:16:58;5.05;;;2.10;;
37645;SDS011;23489;49.600;6.138;2022-09-16T20:19:24;3.85;;;2.60;;
37645;SDS011;23489;49.600;6.138;2022-09-16T20:21:50;3.28;;;1.60;;
37645;SDS011;23489;49.600;6.138;2022-09-16T20:24:16;2.47;;;1.42;;
37645;SDS011;23489;49.600;6.138;2022-09-16T20:26:44;2.10;;;1.30;;
37645;SDS011;23489;49.600;6.138;2022-09-16T20:29:10;2.75;;;1.40;;
37645;SDS011;23489;49.600;6.138;2022-09-16T20:31:36;4.70;;;1.80;;
37645;SDS011;23489;49.600;6.138;2022-09-16T20:34:02;4.85;;;2.00;;
37645;SDS011;23489;49.600;6.138;2022-09-16T20:36:29;2.47;;;1.60;;
37645;SDS011;23489;49.600;6.138;2022-09-16T20:38:55;6.97;;;1.70;;
37645;SDS011;23489;49.600;6.138;2022-09-16T20:41:24;3.63;;;1.50;;
37645;SDS011;23489;49.600;6.138;2022-09-16T20:43:52;3.80;;;1.50;;
37645;SDS011;23489;49.600;6.138;2022-09-16T20:46:19;1.30;;;1.20;;
37645;SDS011;23489;49.600;6.138;2022-09-16T20:48:47;3.38;;;1.40;;
37645;SDS011;23489;49.600;6.138;2022-09-16T20:51:13;3.85;;;1.40;;
37645;SDS011;23489;49.600;6.138;2022-09-16T20:53:41;4.05;;;1.10;;
37645;SDS011;23489;49.600;6.138;2022-09-16T20:56:11;1.70;;;1.10;;
37645;SDS011;23489;49.600;6.138;2022-09-16T20:58:38;2.88;;;1.48;;
37645;SDS011;23489;49.600;6.138;2022-09-16T21:01:15;4.45;;;2.50;;
37645;SDS011;23489;49.600;6.138;2022-09-16T21:03:50;4.85;;;2.20;;
37645;SDS011;23489;49.600;6.138;2022-09-16T21:06:17;4.05;;;2.00;;
37645;SDS011;23489;49.600;6.138;2022-09-16T21:08:43;3.77;;;1.80;;
37645;SDS011;23489;49.600;6.138;2022-09-16T21:11:13;3.85;;;1.80;;
37645;SDS011;23489;49.600;6.138;2022-09-16T21:13:41;3.40;;;2.17;;
37645;SDS011;23489;49.600;6.138;2022-09-16T21:16:08;3.23;;;1.83;;
37645;SDS011;23489;49.600;6.138;2022-09-16T21:18:36;4.13;;;1.80;;
37645;SDS011;23489;49.600;6.138;2022-09-16T21:21:16;6.28;;;3.60;;
37645;SDS011;23489;49.600;6.138;2022-09-16T21:23:44;2.97;;;2.00;;
37645;SDS011;23489;49.600;6.138;2022-09-16T21:28:51;3.95;;;2.33;;
37645;SDS011;23489;49.600;6.138;2022-09-16T21:31:21;3.65;;;2.10;;
37645;SDS011;23489;49.600;6.138;2022-09-16T21:33:48;3.80;;;2.03;;
37645;SDS011;23489;49.600;6.138;2022-09-16T21:36:16;4.25;;;2.40;;
37645;SDS011;23489;49.600;6.138;2022-09-16T21:38:42;4.93;;;3.07;;
37645;SDS011;23489;49.600;6.138;2022-09-16T21:41:12;3.08;;;2.03;;
37645;SDS011;23489;49.600;6.138;2022-09-16T21:43:40;2.40;;;1.90;;
37645;SDS011;23489;49.600;6.138;2022-09-16T21:46:12;4.23;;;2.00;;
37645;SDS011;23489;49.600;6.138;2022-09-16T21:48:39;4.78;;;2.22;;
37645;SDS011;23489;49.600;6.138;2022-09-16T21:51:11;3.72;;;2.20;;
37645;SDS011;23489;49.600;6.138;2022-09-16T21:53:38;3.37;;;2.20;;
37645;SDS011;23489;49.600;6.138;2022-09-16T21:56:12;3.70;;;2.35;;
37645;SDS011;23489;49.600;6.138;2022-09-16T21:58:39;5.43;;;2.30;;
37645;SDS011;23489;49.600;6.138;2022-09-16T22:01:06;5.30;;;2.50;;
37645;SDS011;23489;49.600;6.138;2022-09-16T22:03:42;4.70;;;2.30;;
37645;SDS011;23489;49.600;6.138;2022-09-16T22:06:10;3.97;;;2.85;;
37645;SDS011;23489;49.600;6.138;2022-09-16T22:08:37;3.97;;;2.60;;
37645;SDS011;23489;49.600;6.138;2022-09-16T22:11:06;4.90;;;2.53;;
37645;SDS011;23489;49.600;6.138;2022-09-16T22:13:35;4.55;;;2.10;;
37645;SDS011;23489;49.600;6.138;2022-09-16T22:16:02;4.65;;;2.33;;
37645;SDS011;23489;49.600;6.138;2022-09-16T22:18:29;2.88;;;2.05;;
37645;SDS011;23489;49.600;6.138;2022-09-16T22:21:00;4.90;;;2.10;;
37645;SDS011;23489;49.600;6.138;2022-09-16T22:23:27;4.00;;;2.08;;
37645;SDS011;23489;49.600;6.138;2022-09-16T22:25:53;4.18;;;2.45;;
37645;SDS011;23489;49.600;6.138;2022-09-16T22:28:18;3.55;;;2.22;;
37645;SDS011;23489;49.600;6.138;2022-09-16T22:30:44;4.10;;;2.40;;
37645;SDS011;23489;49.600;6.138;2022-09-16T22:33:10;4.00;;;2.35;;
37645;SDS011;23489;49.600;6.138;2022-09-16T22:35:35;4.35;;;2.40;;
37645;SDS011;23489;49.600;6.138;2022-09-16T22:38:02;4.90;;;2.10;;
37645;SDS011;23489;49.600;6.138;2022-09-16T22:40:28;3.05;;;2.30;;
37645;SDS011;23489;49.600;6.138;2022-09-16T22:42:55;5.45;;;2.65;;
37645;SDS011;23489;49.600;6.138;2022-09-16T22:45:21;3.55;;;2.40;;
